Mussala Top/Sommet, Bulgaria
Current Conditions -  °F | °C
As of 8:00 PM on Tuesday 27 Jan 2015 (Local Time) from LBSF Reporting Station
Overcast Overcast  
Wind Chill: 33°   Ceiling: 4900
Heat Index: 39°   Visibility: 6mi
Dew Point: 37°   Wind: 9mph
Humidity: 93%   Direction: 80°E
Pressure: 29.85"   Gusts: NA
Location:  42.18°N, 23.58°E
Report Text: LBSF 271700Z 08008KT 9999 FEW014 OVC049 04/03 Q1011 R99/19//95 NOSIG
Loading
Personal Weather Stations






























Interactive Weather Map New forecast layout! Learn more

10-Day Weather Forecast

Advertisements
Track Severe Weather on mobile